createdAt,value
2019-05-29T00:01:53.515Z,7.20
2019-05-29T00:04:27.811Z,7.20
2019-05-29T00:07:02.890Z,7.20
2019-05-29T00:09:34.978Z,7.20
2019-05-29T00:12:17.165Z,7.20
2019-05-29T00:14:46.720Z,7.20
2019-05-29T00:17:19.198Z,7.20
2019-05-29T00:19:51.806Z,7.10
2019-05-29T00:22:24.220Z,7.20
2019-05-29T00:25:01.701Z,7.10
2019-05-29T00:27:34.789Z,7.10
2019-05-29T00:30:08.871Z,7.00
2019-05-29T00:32:41.565Z,6.90
2019-05-29T00:35:14.914Z,6.90
2019-05-29T00:37:49.910Z,7.00
2019-05-29T00:40:23.499Z,7.00
2019-05-29T00:42:55.774Z,6.90
2019-05-29T00:45:28.582Z,6.90
2019-05-29T00:48:01.650Z,6.90
2019-05-29T00:50:33.660Z,6.80
2019-05-29T00:53:05.827Z,6.80
2019-05-29T00:55:39.306Z,6.70
2019-05-29T00:58:12.802Z,6.70
2019-05-29T01:00:45.977Z,6.70
2019-05-29T01:03:18.211Z,6.70
2019-05-29T01:05:51.835Z,6.70
2019-05-29T01:08:25.039Z,6.70
2019-05-29T01:10:58.557Z,6.70
2019-05-29T01:13:33.055Z,6.60
2019-05-29T01:16:13.356Z,6.70
2019-05-29T01:18:47.781Z,6.70
2019-05-29T01:21:20.783Z,6.80
2019-05-29T01:23:53.440Z,6.90
2019-05-29T01:26:25.440Z,6.80
2019-05-29T01:28:58.368Z,6.80
2019-05-29T01:31:31.108Z,6.80
2019-05-29T01:34:03.483Z,6.70
2019-05-29T01:36:35.965Z,6.80
2019-05-29T01:39:09.432Z,6.80
2019-05-29T01:41:41.593Z,6.90
2019-05-29T01:44:15.251Z,6.90
2019-05-29T01:46:47.456Z,7.00
2019-05-29T01:49:21.611Z,7.00
2019-05-29T01:51:55.587Z,7.00
2019-05-29T01:54:29.185Z,7.10
2019-05-29T01:57:04.114Z,7.20
2019-05-29T01:59:37.081Z,7.30
2019-05-29T02:02:09.363Z,7.40
2019-05-29T02:04:42.099Z,7.50
2019-05-29T02:07:15.763Z,7.50
2019-05-29T02:09:48.645Z,7.50
2019-05-29T02:12:22.301Z,7.50
2019-05-29T02:14:54.565Z,7.50
2019-05-29T02:17:27.940Z,7.50
2019-05-29T02:20:03.676Z,7.60
2019-05-29T02:22:37.233Z,7.60
2019-05-29T02:25:09.670Z,7.60
2019-05-29T02:27:42.611Z,7.70
2019-05-29T02:30:18.748Z,7.80
2019-05-29T02:32:51.803Z,7.80
2019-05-29T02:35:24.780Z,7.90
2019-05-29T02:37:58.088Z,7.90
2019-05-29T02:40:31.719Z,7.90
2019-05-29T02:43:05.204Z,7.90
2019-05-29T02:45:53.666Z,8.00
2019-05-29T02:48:15.966Z,8.10
2019-05-29T02:50:47.952Z,8.20
2019-05-29T02:53:20.119Z,8.20
2019-05-29T02:55:52.588Z,8.30
2019-05-29T02:58:25.826Z,8.30
2019-05-29T03:00:58.859Z,8.40
2019-05-29T03:03:38.022Z,8.40
2019-05-29T03:06:07.245Z,8.50
2019-05-29T03:08:40.370Z,8.50
2019-05-29T03:11:13.290Z,8.50
2019-05-29T03:13:46.253Z,8.50
2019-05-29T03:16:18.496Z,8.50
2019-05-29T03:18:52.909Z,8.50
2019-05-29T03:21:28.421Z,8.40
2019-05-29T03:24:03.444Z,8.40
2019-05-29T03:26:38.261Z,8.30
2019-05-29T03:29:10.924Z,8.30
2019-05-29T03:31:47.611Z,8.30
2019-05-29T03:34:17.141Z,8.20
2019-05-29T03:36:49.644Z,8.10
2019-05-29T03:39:23.033Z,8.10
2019-05-29T03:41:55.397Z,8.00
2019-05-29T03:44:28.701Z,7.90
2019-05-29T03:47:02.277Z,7.80
2019-05-29T03:49:35.160Z,7.70
2019-05-29T03:52:08.143Z,7.60
2019-05-29T03:54:40.254Z,7.60
2019-05-29T03:57:14.016Z,7.50
2019-05-29T03:59:48.522Z,7.50
2019-05-29T04:02:20.448Z,7.40
2019-05-29T04:04:53.369Z,7.30
2019-05-29T04:07:26.864Z,7.30
2019-05-29T04:09:59.465Z,7.30
2019-05-29T04:12:38.267Z,7.20
2019-05-29T04:15:11.402Z,7.20
2019-05-29T04:17:47.558Z,7.20
2019-05-29T04:20:20.339Z,7.20
2019-05-29T04:23:00.628Z,7.20
2019-05-29T04:25:42.824Z,7.20
2019-05-29T04:28:18.711Z,7.20
2019-05-29T04:30:52.819Z,7.20
2019-05-29T04:33:26.083Z,7.30
2019-05-29T04:36:01.442Z,7.40
2019-05-29T04:38:43.157Z,7.40
2019-05-29T04:41:17.192Z,7.50
2019-05-29T04:43:50.506Z,7.60
2019-05-29T04:49:36.206Z,7.90
2019-05-29T04:52:13.083Z,8.00
2019-05-29T04:54:50.118Z,8.10
2019-05-29T04:57:26.364Z,8.20
2019-05-29T05:00:04.488Z,8.30
2019-05-29T05:02:53.958Z,8.50
2019-05-29T05:05:31.166Z,8.60
2019-05-29T05:08:10.415Z,8.80
2019-05-29T05:10:45.913Z,8.90
2019-05-29T05:13:18.965Z,9.10
2019-05-29T05:16:13.096Z,9.30
2019-05-29T05:18:48.167Z,9.40
2019-05-29T05:21:23.532Z,9.60
2019-05-29T05:23:58.011Z,9.70
2019-05-29T05:26:34.150Z,9.90
2019-05-29T05:29:12.291Z,10.00
2019-05-29T05:31:45.625Z,10.10
2019-05-29T05:34:18.085Z,10.30
2019-05-29T05:36:50.703Z,10.50
2019-05-29T05:39:25.354Z,10.60
2019-05-29T05:41:57.717Z,10.70
2019-05-29T05:44:30.754Z,10.80
2019-05-29T05:47:03.454Z,10.90
2019-05-29T05:49:37.343Z,11.10
2019-05-29T05:52:10.021Z,11.10
2019-05-29T05:54:42.140Z,11.20
2019-05-29T05:57:14.929Z,11.30
2019-05-29T05:59:48.219Z,11.40
2019-05-29T06:02:20.914Z,11.50
2019-05-29T06:04:53.556Z,11.70
2019-05-29T06:07:44.450Z,11.70
2019-05-29T06:10:18.120Z,11.90
2019-05-29T06:12:51.450Z,12.00
2019-05-29T06:15:24.528Z,12.00
2019-05-29T06:18:19.426Z,12.00
2019-05-29T06:20:32.934Z,12.20
2019-05-29T06:23:06.567Z,12.30
2019-05-29T06:25:42.449Z,12.60
2019-05-29T06:28:15.466Z,12.80
2019-05-29T06:31:16.362Z,13.00
2019-05-29T06:33:44.255Z,13.00
2019-05-29T06:36:18.438Z,12.90
2019-05-29T06:38:51.786Z,13.00
2019-05-29T06:41:24.234Z,13.20
2019-05-29T06:43:58.038Z,13.40
2019-05-29T06:46:31.885Z,13.60
2019-05-29T06:49:06.561Z,13.80
2019-05-29T06:51:39.398Z,14.00
2019-05-29T06:54:13.357Z,14.00
2019-05-29T06:56:46.433Z,13.90
2019-05-29T06:59:19.425Z,14.10
2019-05-29T07:01:52.946Z,14.20
2019-05-29T07:04:26.178Z,14.50
2019-05-29T07:06:58.926Z,14.40
2019-05-29T07:09:30.916Z,14.70
2019-05-29T07:12:05.252Z,14.70
2019-05-29T07:14:38.335Z,14.70
2019-05-29T07:17:11.348Z,14.90
2019-05-29T07:19:58.838Z,14.90
2019-05-29T07:22:19.073Z,15.00
2019-05-29T07:24:51.844Z,15.20
2019-05-29T07:27:24.936Z,15.40
2019-05-29T07:29:58.107Z,15.40
2019-05-29T07:32:30.646Z,15.50
2019-05-29T07:35:04.289Z,15.70
2019-05-29T07:37:39.692Z,15.70
2019-05-29T07:40:14.723Z,15.70
2019-05-29T07:42:54.952Z,15.90
2019-05-29T07:45:23.604Z,15.90
2019-05-29T07:47:56.754Z,16.00
2019-05-29T07:50:31.738Z,16.20
2019-05-29T07:53:05.105Z,16.20
2019-05-29T07:55:38.433Z,16.20
2019-05-29T07:58:11.070Z,16.10
2019-05-29T08:01:05.073Z,16.20
2019-05-29T08:03:18.834Z,16.40
2019-05-29T08:05:53.407Z,16.50
2019-05-29T08:08:26.027Z,16.40
2019-05-29T08:10:57.846Z,16.50
2019-05-29T08:13:30.425Z,16.70
2019-05-29T08:16:03.727Z,16.70
2019-05-29T08:18:36.814Z,17.00
2019-05-29T08:21:09.511Z,17.20
2019-05-29T08:23:42.299Z,17.20
2019-05-29T08:26:15.721Z,17.20
2019-05-29T08:28:51.121Z,17.10
2019-05-29T08:31:26.867Z,17.10
2019-05-29T08:34:00.171Z,17.30
2019-05-29T08:36:32.420Z,17.30
2019-05-29T08:39:06.312Z,17.30
2019-05-29T08:41:39.760Z,17.40
2019-05-29T08:44:13.537Z,17.40
2019-05-29T08:47:06.341Z,16.90
2019-05-29T08:49:21.921Z,16.90
2019-05-29T08:52:10.578Z,17.40
2019-05-29T08:54:28.612Z,17.70
2019-05-29T08:57:01.047Z,17.70
2019-05-29T08:59:33.382Z,17.80
2019-05-29T09:02:05.777Z,17.90
2019-05-29T09:04:38.058Z,18.00
2019-05-29T09:07:10.589Z,18.10
2019-05-29T09:09:46.996Z,18.10
2019-05-29T09:12:20.834Z,18.50
2019-05-29T09:14:53.297Z,18.60
2019-05-29T09:17:26.148Z,18.80
2019-05-29T09:19:59.053Z,18.90
2019-05-29T09:22:35.525Z,18.80
2019-05-29T09:25:15.463Z,18.70
2019-05-29T09:27:48.577Z,18.50
2019-05-29T09:30:21.791Z,18.20
2019-05-29T09:32:54.860Z,18.20
2019-05-29T09:35:27.148Z,18.10
2019-05-29T09:37:59.148Z,18.10
2019-05-29T09:40:32.921Z,18.00
2019-05-29T09:43:07.379Z,18.00
2019-05-29T09:45:44.741Z,18.10
2019-05-29T09:48:26.944Z,18.50
2019-05-29T09:51:20.223Z,18.80
2019-05-29T09:53:37.548Z,18.90
2019-05-29T09:56:10.667Z,19.30
2019-05-29T09:58:44.062Z,19.60
2019-05-29T10:01:23.479Z,19.50
2019-05-29T10:03:53.417Z,19.40
2019-05-29T10:06:26.364Z,19.00
2019-05-29T10:09:00.184Z,18.60
2019-05-29T10:11:33.195Z,18.50
2019-05-29T10:14:05.597Z,18.60
2019-05-29T10:16:37.688Z,19.00
2019-05-29T10:19:10.741Z,19.20
2019-05-29T10:21:45.037Z,19.50
2019-05-29T10:24:37.451Z,19.50
2019-05-29T10:27:12.217Z,19.60
2019-05-29T10:29:48.833Z,19.60
2019-05-29T10:32:20.314Z,19.70
2019-05-29T10:34:52.784Z,19.80
2019-05-29T10:37:24.920Z,19.90
2019-05-29T10:39:56.704Z,20.00
2019-05-29T10:42:30.571Z,20.10
2019-05-29T10:45:03.679Z,20.20
2019-05-29T10:47:36.266Z,20.50
2019-05-29T10:50:10.295Z,20.40
2019-05-29T10:52:45.838Z,20.30
2019-05-29T10:55:22.209Z,20.00
2019-05-29T10:57:55.226Z,20.00
2019-05-29T11:00:30.041Z,20.30
2019-05-29T11:03:02.481Z,20.30
2019-05-29T11:05:35.937Z,20.30
2019-05-29T11:08:08.590Z,20.40
2019-05-29T11:10:41.914Z,20.50
2019-05-29T11:13:15.002Z,20.10
2019-05-29T11:15:48.495Z,19.90
2019-05-29T11:18:20.819Z,20.10
2019-05-29T11:20:54.028Z,20.40
2019-05-29T11:23:26.266Z,20.70
2019-05-29T11:25:58.425Z,20.90
2019-05-29T11:28:30.827Z,21.30
2019-05-29T11:31:05.874Z,21.80
2019-05-29T11:33:37.610Z,21.80
2019-05-29T11:36:13.374Z,20.90
2019-05-29T11:38:46.778Z,20.60
2019-05-29T11:41:26.400Z,20.60
2019-05-29T11:43:58.912Z,20.40
2019-05-29T11:46:31.947Z,20.40
2019-05-29T11:49:04.359Z,20.50
2019-05-29T11:51:37.164Z,20.70
2019-05-29T11:54:10.044Z,21.00
2019-05-29T11:56:43.885Z,21.00
2019-05-29T11:59:16.269Z,21.00
2019-05-29T12:01:51.337Z,20.80
2019-05-29T12:04:26.742Z,20.60
2019-05-29T12:06:59.490Z,20.60
2019-05-29T12:09:40.271Z,21.10
2019-05-29T12:12:15.534Z,21.20
2019-05-29T12:15:00.366Z,21.20
2019-05-29T12:17:25.724Z,21.30
2019-05-29T12:20:02.522Z,21.30
2019-05-29T12:22:38.413Z,20.90
2019-05-29T12:25:12.292Z,20.80
2019-05-29T12:27:45.032Z,20.70
2019-05-29T12:33:30.209Z,20.50
2019-05-29T12:36:03.394Z,20.50
2019-05-29T12:38:37.237Z,20.50
2019-05-29T12:41:10.501Z,20.50
2019-05-29T12:43:43.647Z,20.70
2019-05-29T12:46:17.201Z,20.70
2019-05-29T12:48:49.667Z,20.60
2019-05-29T12:51:22.558Z,20.40
2019-05-29T12:53:55.832Z,20.40
2019-05-29T12:56:28.258Z,20.70
2019-05-29T12:59:02.657Z,21.00
2019-05-29T13:01:35.203Z,21.00
2019-05-29T13:04:07.642Z,21.30
2019-05-29T13:06:40.597Z,21.60
2019-05-29T13:09:13.178Z,21.40
2019-05-29T13:11:46.516Z,21.20
2019-05-29T13:14:18.933Z,21.50
2019-05-29T13:16:51.259Z,21.40
2019-05-29T13:19:23.821Z,21.20
2019-05-29T13:21:59.274Z,21.30
2019-05-29T13:24:31.870Z,21.30
2019-05-29T13:27:06.052Z,21.40
2019-05-29T13:29:38.837Z,21.10
2019-05-29T13:32:11.346Z,20.80
2019-05-29T13:34:44.834Z,20.80
2019-05-29T13:37:17.417Z,20.90
2019-05-29T13:39:49.852Z,21.00
2019-05-29T13:42:23.578Z,21.10
2019-05-29T13:48:07.586Z,20.90
2019-05-29T13:50:42.571Z,21.10
2019-05-29T13:53:15.558Z,21.30
2019-05-29T13:55:47.508Z,21.20
2019-05-29T13:58:20.986Z,21.00
2019-05-29T14:00:54.371Z,21.30
2019-05-29T14:03:26.983Z,21.50
2019-05-29T14:06:00.337Z,21.60
2019-05-29T14:08:32.660Z,21.60
2019-05-29T14:11:07.238Z,22.00
2019-05-29T14:13:39.658Z,22.40
2019-05-29T14:16:13.302Z,22.70
2019-05-29T14:18:49.325Z,22.70
2019-05-29T14:21:23.034Z,22.30
2019-05-29T14:23:55.835Z,21.90
2019-05-29T14:26:28.274Z,22.00
2019-05-29T14:29:03.524Z,22.20
2019-05-29T14:34:46.332Z,22.30
2019-05-29T14:37:18.779Z,22.00
2019-05-29T14:39:53.372Z,21.90
2019-05-29T14:42:25.608Z,21.90
2019-05-29T14:44:58.490Z,21.80
2019-05-29T14:47:32.266Z,21.90
2019-05-29T14:50:06.498Z,22.00
2019-05-29T14:52:40.198Z,22.10
2019-05-29T14:55:22.176Z,21.90
2019-05-29T14:57:57.204Z,21.70
2019-05-29T15:00:35.157Z,21.50
2019-05-29T15:03:09.327Z,21.20
2019-05-29T15:05:42.981Z,21.00
2019-05-29T15:08:19.424Z,20.70
2019-05-29T15:10:52.087Z,20.60
2019-05-29T15:13:24.851Z,20.40
2019-05-29T15:15:58.591Z,20.30
2019-05-29T15:18:32.202Z,20.10
2019-05-29T15:21:04.936Z,20.00
2019-05-29T15:23:37.274Z,19.80
2019-05-29T15:26:09.798Z,19.70
2019-05-29T15:28:42.964Z,19.50
2019-05-29T15:31:16.551Z,19.40
2019-05-29T15:33:49.805Z,18.80
2019-05-29T15:36:23.407Z,18.70
2019-05-29T15:38:57.110Z,18.50
2019-05-29T15:41:30.292Z,18.40
2019-05-29T15:44:06.962Z,18.50
2019-05-29T15:46:39.714Z,18.50
2019-05-29T15:49:12.946Z,18.40
2019-05-29T15:51:45.581Z,18.50
2019-05-29T15:54:19.343Z,18.60
2019-05-29T15:56:52.575Z,18.30
2019-05-29T15:59:26.028Z,18.50
2019-05-29T16:01:58.557Z,18.20
2019-05-29T16:04:31.843Z,18.20
2019-05-29T16:07:04.966Z,18.70
2019-05-29T16:09:38.195Z,18.60
2019-05-29T16:12:10.782Z,18.90
2019-05-29T16:14:42.691Z,19.10
2019-05-29T16:17:15.239Z,19.50
2019-05-29T16:19:47.025Z,19.20
2019-05-29T16:22:19.070Z,19.00
2019-05-29T16:24:53.219Z,18.80
2019-05-29T16:27:28.688Z,18.90
2019-05-29T16:29:57.930Z,19.30
2019-05-29T16:32:29.621Z,19.20
2019-05-29T16:35:01.992Z,19.10
2019-05-29T16:37:34.564Z,19.00
2019-05-29T16:40:07.006Z,19.10
2019-05-29T16:42:39.681Z,18.70
2019-05-29T16:45:16.416Z,18.50
2019-05-29T16:47:49.952Z,18.10
2019-05-29T16:50:23.843Z,17.80
2019-05-29T16:52:56.726Z,17.80
2019-05-29T16:55:29.092Z,17.60
2019-05-29T16:58:01.859Z,17.50
2019-05-29T17:00:34.243Z,17.50
2019-05-29T17:03:07.365Z,17.50
2019-05-29T17:05:40.987Z,17.30
2019-05-29T17:08:14.051Z,17.30
2019-05-29T17:10:46.854Z,17.30
2019-05-29T17:13:20.640Z,17.30
2019-05-29T17:15:55.028Z,17.30
2019-05-29T17:18:28.318Z,17.50
2019-05-29T17:21:03.766Z,17.70
2019-05-29T17:23:38.575Z,17.60
2019-05-29T17:26:11.993Z,17.80
2019-05-29T17:28:44.523Z,17.90
2019-05-29T17:31:20.889Z,17.90
2019-05-29T17:33:54.060Z,17.90
2019-05-29T17:36:29.007Z,17.80
2019-05-29T17:39:01.883Z,17.90
2019-05-29T17:41:36.296Z,17.80
2019-05-29T17:44:10.248Z,17.80
2019-05-29T17:46:43.436Z,17.80
2019-05-29T17:49:15.730Z,17.80
2019-05-29T17:51:48.768Z,17.70
2019-05-29T17:54:21.827Z,17.60
2019-05-29T18:00:07.035Z,17.50
2019-05-29T18:02:51.307Z,17.50
2019-05-29T18:08:26.859Z,17.40
2019-05-29T18:10:59.704Z,17.40
2019-05-29T18:13:31.799Z,17.30
2019-05-29T18:16:04.994Z,17.30
2019-05-29T18:18:38.028Z,17.30
2019-05-29T18:21:15.443Z,17.20
2019-05-29T18:23:47.972Z,17.10
2019-05-29T18:26:21.902Z,17.30
2019-05-29T18:28:54.511Z,17.20
2019-05-29T18:34:37.955Z,17.10
2019-05-29T18:37:12.360Z,17.00
2019-05-29T18:39:45.811Z,17.00
2019-05-29T18:42:20.353Z,16.90
2019-05-29T18:44:52.969Z,16.90
2019-05-29T18:50:37.101Z,16.80
2019-05-29T18:53:18.170Z,16.80
2019-05-29T18:55:52.248Z,16.70
2019-05-29T18:58:26.023Z,16.70
2019-05-29T19:00:59.612Z,16.60
2019-05-29T19:03:32.839Z,16.60
2019-05-29T19:06:07.121Z,16.60
2019-05-29T19:08:40.054Z,16.50
2019-05-29T19:14:24.068Z,16.40
2019-05-29T19:16:56.504Z,16.40
2019-05-29T19:19:30.189Z,16.30
2019-05-29T19:22:02.963Z,16.30
2019-05-29T19:24:35.430Z,16.30
2019-05-29T19:27:09.173Z,16.20
2019-05-29T19:29:41.709Z,16.20
2019-05-29T19:32:13.881Z,16.20
2019-05-29T19:34:48.299Z,16.10
2019-05-29T19:37:21.259Z,16.10
2019-05-29T19:39:56.960Z,16.10
2019-05-29T19:42:32.211Z,16.00
2019-05-29T19:45:06.303Z,15.90
2019-05-29T19:47:38.885Z,15.90
2019-05-29T19:50:12.352Z,15.90
2019-05-29T19:52:46.493Z,16.00
2019-05-29T19:55:20.119Z,15.90
2019-05-29T19:57:56.508Z,15.90
2019-05-29T20:00:30.121Z,15.90
2019-05-29T20:03:03.126Z,15.80
2019-05-29T20:05:37.038Z,15.70
2019-05-29T20:08:10.425Z,15.70
2019-05-29T20:10:43.011Z,15.60
2019-05-29T20:13:15.506Z,15.60
2019-05-29T20:15:48.915Z,15.60
2019-05-29T20:18:22.295Z,15.60
2019-05-29T20:20:54.365Z,15.50
2019-05-29T20:23:26.290Z,15.40
2019-05-29T20:26:47.062Z,15.40
2019-05-29T20:29:27.679Z,15.40
2019-05-29T20:32:08.417Z,15.30
2019-05-29T20:35:02.810Z,15.20
2019-05-29T20:37:44.761Z,15.30
2019-05-29T20:40:26.008Z,15.30
2019-05-29T20:43:01.898Z,15.30
2019-05-29T20:45:37.384Z,15.30
2019-05-29T20:48:11.601Z,15.30
2019-05-29T20:51:24.554Z,15.20
2019-05-29T20:54:49.761Z,15.20
2019-05-29T20:58:23.475Z,15.30
2019-05-29T21:01:25.504Z,15.10
2019-05-29T21:04:51.814Z,15.20
2019-05-29T21:08:13.296Z,15.20
2019-05-29T21:11:44.497Z,15.10
2019-05-29T21:15:12.115Z,15.10
2019-05-29T21:18:46.560Z,15.00
2019-05-29T21:22:08.235Z,15.00
2019-05-29T21:25:29.738Z,15.00
2019-05-29T21:28:58.325Z,15.00
2019-05-29T21:32:15.486Z,14.90
2019-05-29T21:35:39.984Z,15.00
2019-05-29T21:39:03.801Z,14.90
2019-05-29T21:42:26.179Z,14.80
2019-05-29T21:45:54.481Z,14.90
2019-05-29T21:49:20.387Z,14.90
2019-05-29T21:52:37.683Z,14.90
2019-05-29T21:56:09.111Z,14.80
2019-05-29T21:59:29.066Z,14.80
2019-05-29T22:02:52.224Z,14.70
2019-05-29T22:06:10.543Z,14.70
2019-05-29T22:09:27.756Z,14.70
2019-05-29T22:12:52.343Z,14.70
2019-05-29T22:16:05.988Z,14.50
2019-05-29T22:19:39.134Z,14.50
2019-05-29T22:23:13.324Z,14.40
2019-05-29T22:26:27.838Z,14.40
2019-05-29T22:29:47.292Z,14.30
2019-05-29T22:33:17.161Z,14.30
2019-05-29T22:36:32.564Z,14.30
2019-05-29T22:39:44.426Z,14.30
2019-05-29T22:42:55.928Z,14.10
2019-05-29T22:46:17.542Z,14.00
2019-05-29T22:49:38.566Z,13.80
2019-05-29T22:53:07.136Z,13.70
2019-05-29T22:56:34.496Z,13.60
2019-05-29T22:59:45.859Z,13.50
2019-05-29T23:03:14.557Z,13.40
2019-05-29T23:06:34.931Z,13.30
2019-05-29T23:09:48.972Z,13.30
2019-05-29T23:13:20.293Z,13.30
2019-05-29T23:16:44.177Z,13.20
2019-05-29T23:20:04.340Z,13.10
2019-05-29T23:23:25.971Z,13.10
2019-05-29T23:26:48.992Z,13.10
2019-05-29T23:30:22.123Z,13.10
2019-05-29T23:33:45.194Z,13.10
2019-05-29T23:37:07.957Z,13.00
2019-05-29T23:40:28.849Z,13.00
2019-05-29T23:43:49.015Z,13.00
2019-05-29T23:47:04.234Z,13.00
2019-05-29T23:50:20.553Z,13.00
2019-05-29T23:53:51.676Z,13.00
2019-05-29T23:57:30.297Z,13.00
